< < Back
Terminal Aerodrome Forecast


Current Version              Previous Versions:   1  2  3  4  5  6  7  8  9  

Terminal Aerodrome Forecast

722
FTUS42 KJAX 031120
TAFJAX
TAF
KJAX 031120Z 0312/0412 VRB03KT P6SM SCT005 BKN250
     FM031500 30008KT P6SM VCTS BKN040CB BKN250
     FM040200 VRB04KT P6SM FEW035 BKN250=



Latest METAR

264
SAUS80 KWBC 031400
MTRJAX
METAR KJAX 031356Z 33006KT 10SM FEW007 FEW025 SCT200 BKN250 26/24 A2998
RMK AO2 SLP152 T02610239


USA.gov is the U.S. government's official web portal to all federal, state and local government web resources and services.